sensor_id;sensor_type;location;lat;lon;timestamp;pressure;altitude;pressure_sealevel;temperature;humidity
69402;BME280;56589;51.992;5.924;2024-01-07T00:02:07;101156.31;;;0.26;89.48
69402;BME280;56589;51.992;5.924;2024-01-07T00:04:33;101156.28;;;0.29;89.30
69402;BME280;56589;51.992;5.924;2024-01-07T00:06:59;101169.25;;;0.26;89.08
69402;BME280;56589;51.992;5.924;2024-01-07T00:09:25;101162.31;;;0.28;89.07
69402;BME280;56589;51.992;5.924;2024-01-07T00:11:50;101165.78;;;0.27;89.13
69402;BME280;56589;51.992;5.924;2024-01-07T00:14:19;101172.72;;;0.22;89.29
69402;BME280;56589;51.992;5.924;2024-01-07T00:16:45;101175.41;;;0.17;89.28
69402;BME280;56589;51.992;5.924;2024-01-07T00:19:10;101176.25;;;0.16;89.62
69402;BME280;56589;51.992;5.924;2024-01-07T00:21:36;101168.47;;;0.19;89.76
69402;BME280;56589;51.992;5.924;2024-01-07T00:24:02;101177.91;;;0.23;89.56
69402;BME280;56589;51.992;5.924;2024-01-07T00:26:28;101182.22;;;0.21;89.69
69402;BME280;56589;51.992;5.924;2024-01-07T00:28:54;101182.31;;;0.17;89.89
69402;BME280;56589;51.992;5.924;2024-01-07T00:31:22;101190.88;;;0.19;89.84
69402;BME280;56589;51.992;5.924;2024-01-07T00:33:48;101187.41;;;0.20;89.66
69402;BME280;56589;51.992;5.924;2024-01-07T00:36:13;101189.06;;;0.22;89.99
69402;BME280;56589;51.992;5.924;2024-01-07T00:38:39;101192.53;;;0.21;90.06
69402;BME280;56589;51.992;5.924;2024-01-07T00:41:05;101199.50;;;0.18;89.73
69402;BME280;56589;51.992;5.924;2024-01-07T00:43:31;101196.91;;;0.16;89.82
69402;BME280;56589;51.992;5.924;2024-01-07T00:45:56;101200.41;;;0.14;90.24
69402;BME280;56589;51.992;5.924;2024-01-07T00:48:25;101203.00;;;0.12;89.82
69402;BME280;56589;51.992;5.924;2024-01-07T00:50:51;101205.63;;;0.11;90.02
69402;BME280;56589;51.992;5.924;2024-01-07T00:53:16;101212.44;;;0.15;90.43
69402;BME280;56589;51.992;5.924;2024-01-07T00:55:42;101212.44;;;0.15;90.15
69402;BME280;56589;51.992;5.924;2024-01-07T00:58:08;101215.91;;;0.14;90.00
69402;BME280;56589;51.992;5.924;2024-01-07T01:00:34;101214.13;;;0.16;90.00
69402;BME280;56589;51.992;5.924;2024-01-07T01:02:59;101217.53;;;0.19;90.44
69402;BME280;56589;51.992;5.924;2024-01-07T01:05:28;101221.78;;;0.22;89.95
69402;BME280;56589;51.992;5.924;2024-01-07T01:07:54;101224.38;;;0.23;89.89
69402;BME280;56589;51.992;5.924;2024-01-07T01:10:19;101220.91;;;0.24;89.56
69402;BME280;56589;51.992;5.924;2024-01-07T01:12:45;101221.78;;;0.22;89.59
69402;BME280;56589;51.992;5.924;2024-01-07T01:15:11;101222.66;;;0.24;89.69
69402;BME280;56589;51.992;5.924;2024-01-07T01:17:37;101230.38;;;0.25;89.41
69402;BME280;56589;51.992;5.924;2024-01-07T01:20:03;101232.03;;;0.28;89.73
69402;BME280;56589;51.992;5.924;2024-01-07T01:22:35;101242.38;;;0.29;89.58
69402;BME280;56589;51.992;5.924;2024-01-07T01:25:00;101240.63;;;0.28;89.55
69402;BME280;56589;51.992;5.924;2024-01-07T01:27:26;101236.38;;;0.26;89.39
69402;BME280;56589;51.992;5.924;2024-01-07T01:29:52;101245.88;;;0.22;89.06
69402;BME280;56589;51.992;5.924;2024-01-07T01:32:18;101243.34;;;0.19;89.36
69402;BME280;56589;51.992;5.924;2024-01-07T01:34:43;101243.38;;;0.18;89.47
69402;BME280;56589;51.992;5.924;2024-01-07T01:37:09;101245.09;;;0.19;89.56
69402;BME280;56589;51.992;5.924;2024-01-07T01:39:39;101254.53;;;0.20;89.21
69402;BME280;56589;51.992;5.924;2024-01-07T01:42:05;101253.66;;;0.21;89.66
69402;BME280;56589;51.992;5.924;2024-01-07T01:44:31;101256.22;;;0.22;89.35
69402;BME280;56589;51.992;5.924;2024-01-07T01:46:57;101256.22;;;0.24;89.47
69402;BME280;56589;51.992;5.924;2024-01-07T01:49:24;101256.19;;;0.25;89.60
69402;BME280;56589;51.992;5.924;2024-01-07T01:51:50;101266.53;;;0.24;89.11
69402;BME280;56589;51.992;5.924;2024-01-07T01:54:16;101262.28;;;0.20;89.05
69402;BME280;56589;51.992;5.924;2024-01-07T01:56:45;101270.94;;;0.17;89.14
69402;BME280;56589;51.992;5.924;2024-01-07T01:59:14;101271.00;;;0.13;89.34
69402;BME280;56589;51.992;5.924;2024-01-07T02:01:40;101265.84;;;0.10;89.37
69402;BME280;56589;51.992;5.924;2024-01-07T02:04:06;101272.72;;;0.12;89.52
69402;BME280;56589;51.992;5.924;2024-01-07T02:06:34;101275.28;;;0.14;89.85
69402;BME280;56589;51.992;5.924;2024-01-07T02:09:00;101281.31;;;0.13;89.79
69402;BME280;56589;51.992;5.924;2024-01-07T02:11:25;101283.03;;;0.14;89.69
69402;BME280;56589;51.992;5.924;2024-01-07T02:13:54;101288.25;;;0.11;89.83
69402;BME280;56589;51.992;5.924;2024-01-07T02:16:20;101290.81;;;0.09;90.19
69402;BME280;56589;51.992;5.924;2024-01-07T02:18:46;101294.25;;;0.10;90.00
69402;BME280;56589;51.992;5.924;2024-01-07T02:21:13;101293.44;;;0.07;90.33
69402;BME280;56589;51.992;5.924;2024-01-07T02:23:39;101298.66;;;0.04;90.50
69402;BME280;56589;51.992;5.924;2024-01-07T02:26:08;101293.50;;;0.01;90.21
69402;BME280;56589;51.992;5.924;2024-01-07T02:28:33;101291.81;;;0.00;90.65
69402;BME280;56589;51.992;5.924;2024-01-07T02:31:00;101294.41;;;-0.01;90.59
69402;BME280;56589;51.992;5.924;2024-01-07T02:33:25;101299.56;;;-0.03;90.66
69402;BME280;56589;51.992;5.924;2024-01-07T02:35:51;101296.16;;;-0.05;90.73
69402;BME280;56589;51.992;5.924;2024-01-07T02:38:17;101300.47;;;-0.05;90.48
69402;BME280;56589;51.992;5.924;2024-01-07T02:40:43;101302.16;;;-0.04;90.62
69402;BME280;56589;51.992;5.924;2024-01-07T02:43:11;101300.47;;;-0.05;90.67
69402;BME280;56589;51.992;5.924;2024-01-07T02:45:37;101304.78;;;-0.06;90.67
69402;BME280;56589;51.992;5.924;2024-01-07T02:48:03;101314.19;;;-0.03;90.44
69402;BME280;56589;51.992;5.924;2024-01-07T02:50:32;101312.44;;;0.00;90.59
69402;BME280;56589;51.992;5.924;2024-01-07T02:52:58;101322.72;;;0.03;90.40
69402;BME280;56589;51.992;5.924;2024-01-07T02:55:23;101319.34;;;-0.00;90.23
69402;BME280;56589;51.992;5.924;2024-01-07T02:57:49;101323.69;;;-0.05;89.72
69402;BME280;56589;51.992;5.924;2024-01-07T03:00:18;101317.72;;;-0.09;90.36
69402;BME280;56589;51.992;5.924;2024-01-07T03:02:44;101317.78;;;-0.13;90.20
69402;BME280;56589;51.992;5.924;2024-01-07T03:05:09;101327.28;;;-0.17;90.03
69402;BME280;56589;51.992;5.924;2024-01-07T03:07:37;101320.44;;;-0.20;89.95
69402;BME280;56589;51.992;5.924;2024-01-07T03:10:04;101331.59;;;-0.19;90.24
69402;BME280;56589;51.992;5.924;2024-01-07T03:12:30;101327.28;;;-0.17;90.54
69402;BME280;56589;51.992;5.924;2024-01-07T03:14:56;101336.72;;;-0.16;90.10
69402;BME280;56589;51.992;5.924;2024-01-07T03:17:24;101335.88;;;-0.16;90.19
69402;BME280;56589;51.992;5.924;2024-01-07T03:19:50;101331.56;;;-0.16;89.80
69402;BME280;56589;51.992;5.924;2024-01-07T03:22:16;101352.22;;;-0.17;90.01
69402;BME280;56589;51.992;5.924;2024-01-07T03:24:42;101347.06;;;-0.17;89.71
69402;BME280;56589;51.992;5.924;2024-01-07T03:27:07;101344.47;;;-0.17;89.71
69402;BME280;56589;51.992;5.924;2024-01-07T03:29:33;101347.06;;;-0.17;89.93
69402;BME280;56589;51.992;5.924;2024-01-07T03:31:59;101350.47;;;-0.14;89.93
69402;BME280;56589;51.992;5.924;2024-01-07T03:34:27;101344.44;;;-0.13;89.81
69402;BME280;56589;51.992;5.924;2024-01-07T03:36:53;101350.47;;;-0.14;89.75
69402;BME280;56589;51.992;5.924;2024-01-07T03:39:19;101348.75;;;-0.15;89.63
69402;BME280;56589;51.992;5.924;2024-01-07T03:41:44;101343.66;;;-0.20;89.75
69402;BME280;56589;51.992;5.924;2024-01-07T03:44:10;101352.25;;;-0.19;90.10
69402;BME280;56589;51.992;5.924;2024-01-07T03:46:36;101353.09;;;-0.18;89.49
69402;BME280;56589;51.992;5.924;2024-01-07T03:49:02;101346.25;;;-0.20;90.00
69402;BME280;56589;51.992;5.924;2024-01-07T03:51:30;101353.13;;;-0.20;89.40
69402;BME280;56589;51.992;5.924;2024-01-07T03:53:56;101355.72;;;-0.23;88.98
69402;BME280;56589;51.992;5.924;2024-01-07T03:56:21;101358.34;;;-0.26;89.51
69402;BME280;56589;51.992;5.924;2024-01-07T03:58:47;101362.66;;;-0.30;89.04
69402;BME280;56589;51.992;5.924;2024-01-07T04:01:16;101360.13;;;-0.31;89.11
69402;BME280;56589;51.992;5.924;2024-01-07T04:03:42;101365.25;;;-0.33;89.22
69402;BME280;56589;51.992;5.924;2024-01-07T04:06:07;101361.84;;;-0.32;89.62
69402;BME280;56589;51.992;5.924;2024-01-07T04:08:36;101366.16;;;-0.32;89.86
69402;BME280;56589;51.992;5.924;2024-01-07T04:11:02;101365.28;;;-0.34;89.47
69402;BME280;56589;51.992;5.924;2024-01-07T04:13:27;101386.81;;;-0.35;89.60
69402;BME280;56589;51.992;5.924;2024-01-07T04:15:53;101375.63;;;-0.36;89.35
69402;BME280;56589;51.992;5.924;2024-01-07T04:18:19;101382.53;;;-0.38;89.17
69402;BME280;56589;51.992;5.924;2024-01-07T04:20:45;101381.69;;;-0.40;88.83
69402;BME280;56589;51.992;5.924;2024-01-07T04:23:10;101390.28;;;-0.41;89.17
69402;BME280;56589;51.992;5.924;2024-01-07T04:25:39;101397.19;;;-0.41;89.23
69402;BME280;56589;51.992;5.924;2024-01-07T04:28:05;101393.78;;;-0.43;89.12
69402;BME280;56589;51.992;5.924;2024-01-07T04:30:31;101401.47;;;-0.40;89.37
69402;BME280;56589;51.992;5.924;2024-01-07T04:32:56;101401.47;;;-0.40;89.28
69402;BME280;56589;51.992;5.924;2024-01-07T04:35:22;101398.00;;;-0.39;89.06
69402;BME280;56589;51.992;5.924;2024-01-07T04:37:48;101394.56;;;-0.37;88.84
69402;BME280;56589;51.992;5.924;2024-01-07T04:40:14;101410.91;;;-0.38;88.86
69402;BME280;56589;51.992;5.924;2024-01-07T04:42:42;101407.50;;;-0.38;88.89
69402;BME280;56589;51.992;5.924;2024-01-07T04:45:08;101407.47;;;-0.37;89.19
69402;BME280;56589;51.992;5.924;2024-01-07T04:47:34;101406.63;;;-0.37;88.87
69402;BME280;56589;51.992;5.924;2024-01-07T04:50:00;101397.16;;;-0.37;88.69
69402;BME280;56589;51.992;5.924;2024-01-07T04:52:27;101410.91;;;-0.36;88.54
69402;BME280;56589;51.992;5.924;2024-01-07T04:54:53;101418.63;;;-0.36;88.49
69402;BME280;56589;51.992;5.924;2024-01-07T04:57:20;101415.22;;;-0.38;88.13
69402;BME280;56589;51.992;5.924;2024-01-07T04:59:50;101414.34;;;-0.39;88.45
69402;BME280;56589;51.992;5.924;2024-01-07T05:02:16;101419.53;;;-0.40;88.35
69402;BME280;56589;51.992;5.924;2024-01-07T05:04:42;101423.84;;;-0.42;88.18
69402;BME280;56589;51.992;5.924;2024-01-07T05:07:08;101435.03;;;-0.43;88.04
69402;BME280;56589;51.992;5.924;2024-01-07T05:09:33;101428.13;;;-0.40;88.31
69402;BME280;56589;51.992;5.924;2024-01-07T05:11:59;101428.13;;;-0.38;88.48
69402;BME280;56589;51.992;5.924;2024-01-07T05:14:26;101433.28;;;-0.40;88.01
69402;BME280;56589;51.992;5.924;2024-01-07T05:16:55;101442.75;;;-0.45;87.52
69402;BME280;56589;51.992;5.924;2024-01-07T05:19:21;101441.94;;;-0.47;87.92
69402;BME280;56589;51.992;5.924;2024-01-07T05:21:47;101448.00;;;-0.50;87.84
69402;BME280;56589;51.992;5.924;2024-01-07T05:24:13;101456.56;;;-0.49;87.59
69402;BME280;56589;51.992;5.924;2024-01-07T05:26:38;101449.72;;;-0.50;87.84
69402;BME280;56589;51.992;5.924;2024-01-07T05:29:05;101452.28;;;-0.49;87.77
69402;BME280;56589;51.992;5.924;2024-01-07T05:31:31;101459.13;;;-0.46;88.11
69402;BME280;56589;51.992;5.924;2024-01-07T05:33:59;101465.13;;;-0.46;87.61
69402;BME280;56589;51.992;5.924;2024-01-07T05:36:25;101466.84;;;-0.46;87.42
69402;BME280;56589;51.992;5.924;2024-01-07T05:38:51;101473.72;;;-0.45;87.63
69402;BME280;56589;51.992;5.924;2024-01-07T05:41:16;101473.72;;;-0.43;87.31
69402;BME280;56589;51.992;5.924;2024-01-07T05:43:42;101475.44;;;-0.42;87.49
69402;BME280;56589;51.992;5.924;2024-01-07T05:46:08;101485.75;;;-0.42;87.33
69402;BME280;56589;51.992;5.924;2024-01-07T05:48:40;101486.63;;;-0.45;87.31
69402;BME280;56589;51.992;5.924;2024-01-07T05:51:09;101479.78;;;-0.48;86.90
69402;BME280;56589;51.992;5.924;2024-01-07T05:53:35;101484.94;;;-0.44;87.32
69402;BME280;56589;51.992;5.924;2024-01-07T05:56:01;101490.09;;;-0.44;87.55
69402;BME280;56589;51.992;5.924;2024-01-07T05:58:27;101493.47;;;-0.39;87.54
69402;BME280;56589;51.992;5.924;2024-01-07T06:00:53;101501.16;;;-0.35;87.54
69402;BME280;56589;51.992;5.924;2024-01-07T06:03:19;101505.47;;;-0.34;87.27
69402;BME280;56589;51.992;5.924;2024-01-07T06:05:44;101505.47;;;-0.32;87.30
69402;BME280;56589;51.992;5.924;2024-01-07T06:08:13;101510.63;;;-0.34;86.71
69402;BME280;56589;51.992;5.924;2024-01-07T06:10:39;101519.28;;;-0.38;86.53
69402;BME280;56589;51.992;5.924;2024-01-07T06:13:04;101520.09;;;-0.39;87.23
69402;BME280;56589;51.992;5.924;2024-01-07T06:15:30;101525.25;;;-0.36;87.29
69402;BME280;56589;51.992;5.924;2024-01-07T06:17:56;101533.03;;;-0.37;86.91
69402;BME280;56589;51.992;5.924;2024-01-07T06:20:22;101533.88;;;-0.40;87.22
69402;BME280;56589;51.992;5.924;2024-01-07T06:22:48;101528.75;;;-0.41;86.93
69402;BME280;56589;51.992;5.924;2024-01-07T06:25:17;101530.47;;;-0.43;87.08
69402;BME280;56589;51.992;5.924;2024-01-07T06:27:43;101535.66;;;-0.43;86.86
69402;BME280;56589;51.992;5.924;2024-01-07T06:30:09;101541.69;;;-0.44;87.11
69402;BME280;56589;51.992;5.924;2024-01-07T06:32:36;101549.41;;;-0.48;86.41
69402;BME280;56589;51.992;5.924;2024-01-07T06:35:02;101555.44;;;-0.52;86.44
69402;BME280;56589;51.992;5.924;2024-01-07T06:37:28;101559.75;;;-0.49;86.84
69402;BME280;56589;51.992;5.924;2024-01-07T06:39:54;101563.16;;;-0.47;87.02
69402;BME280;56589;51.992;5.924;2024-01-07T06:42:22;101569.22;;;-0.50;86.11
69402;BME280;56589;51.992;5.924;2024-01-07T06:44:48;101564.91;;;-0.52;86.06
69402;BME280;56589;51.992;5.924;2024-01-07T06:47:13;101570.13;;;-0.57;86.01
69402;BME280;56589;51.992;5.924;2024-01-07T06:49:40;101576.13;;;-0.56;86.36
69402;BME280;56589;51.992;5.924;2024-01-07T06:52:05;101580.44;;;-0.57;86.52
69402;BME280;56589;51.992;5.924;2024-01-07T06:54:31;101577.00;;;-0.59;85.81
69402;BME280;56589;51.992;5.924;2024-01-07T06:56:57;101577.03;;;-0.62;86.02
69402;BME280;56589;51.992;5.924;2024-01-07T06:59:25;101585.63;;;-0.61;85.99
69402;BME280;56589;51.992;5.924;2024-01-07T07:01:51;101591.59;;;-0.59;86.38
69402;BME280;56589;51.992;5.924;2024-01-07T07:04:17;101589.03;;;-0.59;86.14
69402;BME280;56589;51.992;5.924;2024-01-07T07:06:43;101584.75;;;-0.60;85.71
69402;BME280;56589;51.992;5.924;2024-01-07T07:09:08;101590.75;;;-0.60;85.88
69402;BME280;56589;51.992;5.924;2024-01-07T07:11:34;101603.66;;;-0.60;85.34
69402;BME280;56589;51.992;5.924;2024-01-07T07:14:00;101603.69;;;-0.63;85.30
69402;BME280;56589;51.992;5.924;2024-01-07T07:16:28;101614.00;;;-0.63;85.21
69402;BME280;56589;51.992;5.924;2024-01-07T07:18:54;101610.53;;;-0.62;85.20
69402;BME280;56589;51.992;5.924;2024-01-07T07:21:20;101607.09;;;-0.61;85.53
69402;BME280;56589;51.992;5.924;2024-01-07T07:23:45;101615.69;;;-0.62;85.29
69402;BME280;56589;51.992;5.924;2024-01-07T07:26:11;101619.16;;;-0.63;85.10
69402;BME280;56589;51.992;5.924;2024-01-07T07:28:37;101625.16;;;-0.62;85.36
69402;BME280;56589;51.992;5.924;2024-01-07T07:31:03;101633.75;;;-0.62;85.30
69402;BME280;56589;51.992;5.924;2024-01-07T07:33:31;101648.34;;;-0.64;84.74
69402;BME280;56589;51.992;5.924;2024-01-07T07:35:57;101643.19;;;-0.64;84.99
69402;BME280;56589;51.992;5.924;2024-01-07T07:38:23;101647.50;;;-0.66;85.29
69402;BME280;56589;51.992;5.924;2024-01-07T07:40:49;101653.53;;;-0.62;85.51
69402;BME280;56589;51.992;5.924;2024-01-07T07:43:14;101650.94;;;-0.61;85.33
69402;BME280;56589;51.992;5.924;2024-01-07T07:45:40;101658.69;;;-0.61;85.14
69402;BME280;56589;51.992;5.924;2024-01-07T07:48:07;101659.53;;;-0.60;84.78
69402;BME280;56589;51.992;5.924;2024-01-07T07:50:35;101663.84;;;-0.62;84.55
69402;BME280;56589;51.992;5.924;2024-01-07T07:53:01;101671.56;;;-0.61;84.99
69402;BME280;56589;51.992;5.924;2024-01-07T07:55:27;101673.28;;;-0.60;84.41
69402;BME280;56589;51.992;5.924;2024-01-07T07:57:53;101673.28;;;-0.60;84.49
69402;BME280;56589;51.992;5.924;2024-01-07T08:00:19;101683.59;;;-0.58;84.74
69402;BME280;56589;51.992;5.924;2024-01-07T08:02:45;101687.88;;;-0.59;84.03
69402;BME280;56589;51.992;5.924;2024-01-07T08:05:11;101697.34;;;-0.64;84.17
69402;BME280;56589;51.992;5.924;2024-01-07T08:07:39;101685.34;;;-0.69;83.83
69402;BME280;56589;51.992;5.924;2024-01-07T08:10:06;101688.78;;;-0.70;84.05
69402;BME280;56589;51.992;5.924;2024-01-07T08:12:33;101690.50;;;-0.73;83.59
69402;BME280;56589;51.992;5.924;2024-01-07T08:14:59;101698.25;;;-0.71;84.48
69402;BME280;56589;51.992;5.924;2024-01-07T08:17:25;101702.53;;;-0.67;84.68
69402;BME280;56589;51.992;5.924;2024-01-07T08:19:50;101705.09;;;-0.64;84.27
69402;BME280;56589;51.992;5.924;2024-01-07T08:22:16;101711.13;;;-0.66;84.30
69402;BME280;56589;51.992;5.924;2024-01-07T08:24:44;101715.44;;;-0.67;84.98
69402;BME280;56589;51.992;5.924;2024-01-07T08:27:10;101720.56;;;-0.70;83.99
69402;BME280;56589;51.992;5.924;2024-01-07T08:29:36;101720.59;;;-0.78;83.98
69402;BME280;56589;51.992;5.924;2024-01-07T08:32:02;101724.06;;;-0.86;83.34
69402;BME280;56589;51.992;5.924;2024-01-07T08:34:28;101728.38;;;-0.87;83.60
69402;BME280;56589;51.992;5.924;2024-01-07T08:36:54;101731.78;;;-0.88;83.76
69402;BME280;56589;51.992;5.924;2024-01-07T08:39:20;101732.66;;;-0.90;83.58
69402;BME280;56589;51.992;5.924;2024-01-07T08:41:48;101735.25;;;-0.93;83.16
69402;BME280;56589;51.992;5.924;2024-01-07T08:44:14;101747.28;;;-0.91;83.24
69402;BME280;56589;51.992;5.924;2024-01-07T08:46:40;101741.28;;;-0.93;83.01
69402;BME280;56589;51.992;5.924;2024-01-07T08:49:05;101748.16;;;-0.93;83.43
69402;BME280;56589;51.992;5.924;2024-01-07T08:51:31;101755.00;;;-0.89;84.11
69402;BME280;56589;51.992;5.924;2024-01-07T08:53:57;101757.59;;;-0.92;83.51
69402;BME280;56589;51.992;5.924;2024-01-07T08:56:23;101761.00;;;-0.89;84.00
69402;BME280;56589;51.992;5.924;2024-01-07T08:58:51;101773.91;;;-0.87;83.41
69402;BME280;56589;51.992;5.924;2024-01-07T09:01:17;101769.59;;;-0.90;83.12
69402;BME280;56589;51.992;5.924;2024-01-07T09:03:43;101771.34;;;-0.96;81.83
69402;BME280;56589;51.992;5.924;2024-01-07T09:06:09;101775.66;;;-1.00;81.29
69402;BME280;56589;51.992;5.924;2024-01-07T09:08:34;101775.66;;;-1.06;81.09
69402;BME280;56589;51.992;5.924;2024-01-07T09:11:01;101779.94;;;-1.10;81.70
69402;BME280;56589;51.992;5.924;2024-01-07T09:13:28;101782.50;;;-1.04;82.42
69402;BME280;56589;51.992;5.924;2024-01-07T09:15:57;101792.81;;;-1.04;82.13
69402;BME280;56589;51.992;5.924;2024-01-07T09:18:23;101791.97;;;-1.03;82.12
69402;BME280;56589;51.992;5.924;2024-01-07T09:20:48;101788.50;;;-1.02;82.05
69402;BME280;56589;51.992;5.924;2024-01-07T09:23:14;101800.56;;;-0.97;82.48
69402;BME280;56589;51.992;5.924;2024-01-07T09:25:40;101797.09;;;-0.96;82.39
69402;BME280;56589;51.992;5.924;2024-01-07T09:28:06;101803.97;;;-0.94;82.65
69402;BME280;56589;51.992;5.924;2024-01-07T09:30:31;101805.72;;;-0.93;81.70
69402;BME280;56589;51.992;5.924;2024-01-07T09:33:00;101814.28;;;-0.94;82.02
69402;BME280;56589;51.992;5.924;2024-01-07T09:35:25;101818.56;;;-0.94;81.86
69402;BME280;56589;51.992;5.924;2024-01-07T09:37:51;101817.72;;;-0.95;81.87
69402;BME280;56589;51.992;5.924;2024-01-07T09:40:18;101816.03;;;-0.93;81.52
69402;BME280;56589;51.992;5.924;2024-01-07T09:42:44;101815.16;;;-0.92;82.00
69402;BME280;56589;51.992;5.924;2024-01-07T09:45:12;101833.19;;;-0.89;82.05
69402;BME280;56589;51.992;5.924;2024-01-07T09:47:39;101834.91;;;-0.89;81.41
69402;BME280;56589;51.992;5.924;2024-01-07T09:50:09;101840.09;;;-0.86;81.78
69402;BME280;56589;51.992;5.924;2024-01-07T09:52:37;101845.22;;;-0.82;81.74
69402;BME280;56589;51.992;5.924;2024-01-07T09:55:07;101844.38;;;-0.84;80.97
69402;BME280;56589;51.992;5.924;2024-01-07T09:57:35;101852.97;;;-0.85;81.21
69402;BME280;56589;51.992;5.924;2024-01-07T10:00:07;101846.09;;;-0.86;80.88
69402;BME280;56589;51.992;5.924;2024-01-07T10:02:34;101852.97;;;-0.85;80.83
69402;BME280;56589;51.992;5.924;2024-01-07T10:05:00;101852.09;;;-0.85;80.43
69402;BME280;56589;51.992;5.924;2024-01-07T10:07:28;101849.53;;;-0.84;79.97
69402;BME280;56589;51.992;5.924;2024-01-07T10:09:54;101852.97;;;-0.80;80.57
69402;BME280;56589;51.992;5.924;2024-01-07T10:12:22;101854.69;;;-0.78;79.97
69402;BME280;56589;51.992;5.924;2024-01-07T10:14:48;101862.41;;;-0.73;79.97
69402;BME280;56589;51.992;5.924;2024-01-07T10:17:15;101859.81;;;-0.70;79.67
69402;BME280;56589;51.992;5.924;2024-01-07T10:19:43;101865.00;;;-0.67;79.76
69402;BME280;56589;51.992;5.924;2024-01-07T10:22:12;101868.41;;;-0.69;78.75
69402;BME280;56589;51.992;5.924;2024-01-07T10:24:41;101865.00;;;-0.71;78.18
69402;BME280;56589;51.992;5.924;2024-01-07T10:27:08;101863.28;;;-0.74;77.40
69402;BME280;56589;51.992;5.924;2024-01-07T10:29:35;101871.88;;;-0.75;77.57
69402;BME280;56589;51.992;5.924;2024-01-07T10:32:01;101873.59;;;-0.77;77.14
69402;BME280;56589;51.992;5.924;2024-01-07T10:34:29;101874.44;;;-0.70;77.74
69402;BME280;56589;51.992;5.924;2024-01-07T10:36:56;101875.28;;;-0.64;77.94
69402;BME280;56589;51.992;5.924;2024-01-07T10:39:24;101879.59;;;-0.58;77.14
69402;BME280;56589;51.992;5.924;2024-01-07T10:41:54;101878.75;;;-0.54;77.27
69402;BME280;56589;51.992;5.924;2024-01-07T10:44:20;101876.16;;;-0.53;77.71
69402;BME280;56589;51.992;5.924;2024-01-07T10:46:46;101889.94;;;-0.44;77.63
69402;BME280;56589;51.992;5.924;2024-01-07T10:49:21;101883.91;;;-0.42;77.71
69402;BME280;56589;51.992;5.924;2024-01-07T10:51:56;101892.50;;;-0.38;77.71
69402;BME280;56589;51.992;5.924;2024-01-07T10:54:29;101890.75;;;-0.27;78.53
69402;BME280;56589;51.992;5.924;2024-01-07T10:56:59;101890.75;;;-0.20;77.64
69402;BME280;56589;51.992;5.924;2024-01-07T10:59:33;101890.72;;;-0.16;76.96
69402;BME280;56589;51.992;5.924;2024-01-07T11:02:01;101896.78;;;-0.24;76.18
69402;BME280;56589;51.992;5.924;2024-01-07T11:04:32;101890.75;;;-0.29;76.40
69402;BME280;56589;51.992;5.924;2024-01-07T11:07:09;101892.47;;;-0.35;75.88
69402;BME280;56589;51.992;5.924;2024-01-07T11:09:52;101901.94;;;-0.40;75.17
69402;BME280;56589;51.992;5.924;2024-01-07T11:12:30;101895.94;;;-0.41;75.88
69402;BME280;56589;51.992;5.924;2024-01-07T11:14:57;101895.94;;;-0.42;75.89
69402;BME280;56589;51.992;5.924;2024-01-07T11:17:41;101899.38;;;-0.47;74.96
69402;BME280;56589;51.992;5.924;2024-01-07T11:20:13;101904.53;;;-0.45;75.87
69402;BME280;56589;51.992;5.924;2024-01-07T11:22:43;101898.53;;;-0.44;75.15
69402;BME280;56589;51.992;5.924;2024-01-07T11:25:27;101901.09;;;-0.36;75.02
69402;BME280;56589;51.992;5.924;2024-01-07T11:27:57;101907.97;;;-0.29;75.22
69402;BME280;56589;51.992;5.924;2024-01-07T11:30:23;101910.53;;;-0.18;74.92
69402;BME280;56589;51.992;5.924;2024-01-07T11:32:56;101906.19;;;-0.04;76.35
69402;BME280;56589;51.992;5.924;2024-01-07T11:35:56;101907.88;;;0.07;74.94
69402;BME280;56589;51.992;5.924;2024-01-07T11:38:22;101911.31;;;0.08;74.06
69402;BME280;56589;51.992;5.924;2024-01-07T11:40:49;101914.75;;;0.04;73.85
69402;BME280;56589;51.992;5.924;2024-01-07T11:43:15;101913.94;;;0.00;73.64
69402;BME280;56589;51.992;5.924;2024-01-07T11:45:41;101913.09;;;-0.05;72.41
69402;BME280;56589;51.992;5.924;2024-01-07T11:48:07;101913.94;;;-0.10;73.10
69402;BME280;56589;51.992;5.924;2024-01-07T11:50:34;101923.41;;;-0.11;73.91
69402;BME280;56589;51.992;5.924;2024-01-07T11:53:03;101913.09;;;-0.11;73.98
69402;BME280;56589;51.992;5.924;2024-01-07T11:55:29;101916.53;;;-0.09;73.52
69402;BME280;56589;51.992;5.924;2024-01-07T11:57:56;101907.94;;;-0.11;72.12
69402;BME280;56589;51.992;5.924;2024-01-07T12:00:22;101917.41;;;-0.11;71.80
69402;BME280;56589;51.992;5.924;2024-01-07T12:02:47;101917.41;;;-0.11;71.08
69402;BME280;56589;51.992;5.924;2024-01-07T12:05:13;101911.38;;;-0.06;70.83
69402;BME280;56589;51.992;5.924;2024-01-07T12:07:39;101916.50;;;-0.04;70.91
69402;BME280;56589;51.992;5.924;2024-01-07T12:10:09;101912.22;;;-0.07;67.53
69402;BME280;56589;51.992;5.924;2024-01-07T12:12:35;101909.66;;;-0.05;67.65
69402;BME280;56589;51.992;5.924;2024-01-07T12:15:01;101929.44;;;-0.04;67.13
69402;BME280;56589;51.992;5.924;2024-01-07T12:17:28;101912.22;;;-0.08;66.37
69402;BME280;56589;51.992;5.924;2024-01-07T12:19:56;101913.94;;;-0.06;68.24
69402;BME280;56589;51.992;5.924;2024-01-07T12:22:22;101914.75;;;0.04;68.11
69402;BME280;56589;51.992;5.924;2024-01-07T12:24:59;101927.66;;;0.18;68.54
69402;BME280;56589;51.992;5.924;2024-01-07T12:27:28;101923.34;;;0.29;67.57
69402;BME280;56589;51.992;5.924;2024-01-07T12:29:57;101917.25;;;0.38;67.69
69402;BME280;56589;51.992;5.924;2024-01-07T12:32:26;101915.59;;;0.29;65.28
69402;BME280;56589;51.992;5.924;2024-01-07T12:34:52;101919.91;;;0.15;64.27
69402;BME280;56589;51.992;5.924;2024-01-07T12:37:17;101921.69;;;0.00;65.03
69402;BME280;56589;51.992;5.924;2024-01-07T12:39:43;101922.53;;;-0.08;65.06
69402;BME280;56589;51.992;5.924;2024-01-07T12:42:09;101932.03;;;-0.24;65.08
69402;BME280;56589;51.992;5.924;2024-01-07T12:44:39;101920.00;;;-0.31;66.77
69402;BME280;56589;51.992;5.924;2024-01-07T12:47:04;101920.84;;;-0.40;66.00
69402;BME280;56589;51.992;5.924;2024-01-07T12:49:30;101930.34;;;-0.43;64.70
69402;BME280;56589;51.992;5.924;2024-01-07T12:51:56;101920.03;;;-0.43;64.94